sensor_id;sensor_type;location;lat;lon;timestamp;P1;durP1;ratioP1;P2;durP2;ratioP2
6442;SDS011;3254;47.372;8.512;2024-02-26T00:01:20;3.53;;;3.27;;
6442;SDS011;3254;47.372;8.512;2024-02-26T00:03:46;3.10;;;2.87;;
6442;SDS011;3254;47.372;8.512;2024-02-26T00:06:12;2.90;;;2.70;;
6442;SDS011;3254;47.372;8.512;2024-02-26T00:08:37;5.33;;;3.30;;
6442;SDS011;3254;47.372;8.512;2024-02-26T00:11:03;5.70;;;3.37;;
6442;SDS011;3254;47.372;8.512;2024-02-26T00:13:28;4.30;;;4.00;;
6442;SDS011;3254;47.372;8.512;2024-02-26T00:15:54;3.77;;;3.47;;
6442;SDS011;3254;47.372;8.512;2024-02-26T00:18:19;3.73;;;3.40;;
6442;SDS011;3254;47.372;8.512;2024-02-26T00:20:44;3.67;;;3.37;;
6442;SDS011;3254;47.372;8.512;2024-02-26T00:23:10;3.03;;;2.80;;
6442;SDS011;3254;47.372;8.512;2024-02-26T00:25:35;2.80;;;2.60;;
6442;SDS011;3254;47.372;8.512;2024-02-26T00:28:02;2.77;;;2.67;;
6442;SDS011;3254;47.372;8.512;2024-02-26T00:30:28;2.40;;;2.20;;
6442;SDS011;3254;47.372;8.512;2024-02-26T00:32:54;2.37;;;2.20;;
6442;SDS011;3254;47.372;8.512;2024-02-26T00:35:19;2.50;;;2.27;;
6442;SDS011;3254;47.372;8.512;2024-02-26T00:37:45;10.83;;;3.23;;
6442;SDS011;3254;47.372;8.512;2024-02-26T00:40:11;2.40;;;2.30;;
6442;SDS011;3254;47.372;8.512;2024-02-26T00:42:36;4.00;;;2.37;;
6442;SDS011;3254;47.372;8.512;2024-02-26T00:45:02;2.50;;;2.30;;
6442;SDS011;3254;47.372;8.512;2024-02-26T00:47:27;2.53;;;2.23;;
6442;SDS011;3254;47.372;8.512;2024-02-26T00:49:52;2.20;;;2.10;;
6442;SDS011;3254;47.372;8.512;2024-02-26T00:52:18;2.30;;;2.10;;
6442;SDS011;3254;47.372;8.512;2024-02-26T00:54:43;4.70;;;1.90;;
6442;SDS011;3254;47.372;8.512;2024-02-26T00:57:08;2.07;;;1.97;;
6442;SDS011;3254;47.372;8.512;2024-02-26T00:59:34;1.83;;;1.70;;
6442;SDS011;3254;47.372;8.512;2024-02-26T01:01:59;1.47;;;1.37;;
6442;SDS011;3254;47.372;8.512;2024-02-26T01:04:27;1.60;;;1.50;;
6442;SDS011;3254;47.372;8.512;2024-02-26T01:06:52;2.60;;;1.60;;
6442;SDS011;3254;47.372;8.512;2024-02-26T01:09:17;2.27;;;2.00;;
6442;SDS011;3254;47.372;8.512;2024-02-26T01:11:43;1.70;;;1.60;;
6442;SDS011;3254;47.372;8.512;2024-02-26T01:14:09;2.47;;;2.03;;
6442;SDS011;3254;47.372;8.512;2024-02-26T01:16:34;1.80;;;1.70;;
6442;SDS011;3254;47.372;8.512;2024-02-26T01:18:59;2.70;;;1.27;;
6442;SDS011;3254;47.372;8.512;2024-02-26T01:21:25;1.40;;;1.30;;
6442;SDS011;3254;47.372;8.512;2024-02-26T01:23:51;1.50;;;1.10;;
6442;SDS011;3254;47.372;8.512;2024-02-26T01:26:17;2.67;;;1.43;;
6442;SDS011;3254;47.372;8.512;2024-02-26T01:28:42;2.07;;;1.50;;
6442;SDS011;3254;47.372;8.512;2024-02-26T01:31:09;1.37;;;1.20;;
6442;SDS011;3254;47.372;8.512;2024-02-26T01:33:34;1.20;;;1.10;;
6442;SDS011;3254;47.372;8.512;2024-02-26T01:36:00;1.40;;;1.30;;
6442;SDS011;3254;47.372;8.512;2024-02-26T01:38:25;1.17;;;1.07;;
6442;SDS011;3254;47.372;8.512;2024-02-26T01:40:51;1.13;;;1.03;;
6442;SDS011;3254;47.372;8.512;2024-02-26T01:43:16;1.20;;;1.10;;
6442;SDS011;3254;47.372;8.512;2024-02-26T01:45:42;4.63;;;1.00;;
6442;SDS011;3254;47.372;8.512;2024-02-26T01:48:07;1.10;;;1.03;;
6442;SDS011;3254;47.372;8.512;2024-02-26T01:50:33;1.07;;;0.97;;
6442;SDS011;3254;47.372;8.512;2024-02-26T01:52:59;0.87;;;0.70;;
6442;SDS011;3254;47.372;8.512;2024-02-26T01:55:25;1.37;;;0.70;;
6442;SDS011;3254;47.372;8.512;2024-02-26T01:57:51;1.13;;;1.00;;
6442;SDS011;3254;47.372;8.512;2024-02-26T02:00:17;1.00;;;1.00;;
6442;SDS011;3254;47.372;8.512;2024-02-26T02:02:43;1.20;;;1.10;;
6442;SDS011;3254;47.372;8.512;2024-02-26T02:05:11;1.80;;;1.23;;
6442;SDS011;3254;47.372;8.512;2024-02-26T02:07:37;1.40;;;1.30;;
6442;SDS011;3254;47.372;8.512;2024-02-26T02:10:03;1.40;;;1.30;;
6442;SDS011;3254;47.372;8.512;2024-02-26T02:12:28;1.37;;;1.27;;
6442;SDS011;3254;47.372;8.512;2024-02-26T02:14:54;3.20;;;1.20;;
6442;SDS011;3254;47.372;8.512;2024-02-26T02:17:20;1.43;;;1.33;;
6442;SDS011;3254;47.372;8.512;2024-02-26T02:19:45;1.93;;;1.50;;
6442;SDS011;3254;47.372;8.512;2024-02-26T02:22:11;4.03;;;1.33;;
6442;SDS011;3254;47.372;8.512;2024-02-26T02:24:36;1.30;;;1.20;;
6442;SDS011;3254;47.372;8.512;2024-02-26T02:27:01;2.50;;;0.93;;
6442;SDS011;3254;47.372;8.512;2024-02-26T02:29:27;1.10;;;1.00;;
6442;SDS011;3254;47.372;8.512;2024-02-26T02:31:53;0.90;;;0.90;;
6442;SDS011;3254;47.372;8.512;2024-02-26T02:34:18;2.80;;;1.20;;
6442;SDS011;3254;47.372;8.512;2024-02-26T02:36:53;1.13;;;1.10;;
6442;SDS011;3254;47.372;8.512;2024-02-26T02:39:19;1.70;;;1.60;;
6442;SDS011;3254;47.372;8.512;2024-02-26T02:41:45;1.90;;;1.80;;
6442;SDS011;3254;47.372;8.512;2024-02-26T02:44:11;2.17;;;2.07;;
6442;SDS011;3254;47.372;8.512;2024-02-26T02:46:36;1.43;;;1.27;;
6442;SDS011;3254;47.372;8.512;2024-02-26T02:49:02;1.70;;;1.60;;
6442;SDS011;3254;47.372;8.512;2024-02-26T02:51:27;1.80;;;1.70;;
6442;SDS011;3254;47.372;8.512;2024-02-26T02:53:53;1.70;;;1.60;;
6442;SDS011;3254;47.372;8.512;2024-02-26T02:56:18;1.40;;;1.30;;
6442;SDS011;3254;47.372;8.512;2024-02-26T02:58:44;1.50;;;1.40;;
6442;SDS011;3254;47.372;8.512;2024-02-26T03:01:10;2.00;;;1.90;;
6442;SDS011;3254;47.372;8.512;2024-02-26T03:03:35;1.40;;;1.30;;
6442;SDS011;3254;47.372;8.512;2024-02-26T03:06:02;1.93;;;1.67;;
6442;SDS011;3254;47.372;8.512;2024-02-26T03:08:28;3.20;;;1.67;;
6442;SDS011;3254;47.372;8.512;2024-02-26T03:10:54;1.40;;;1.30;;
6442;SDS011;3254;47.372;8.512;2024-02-26T03:13:19;1.60;;;1.50;;
6442;SDS011;3254;47.372;8.512;2024-02-26T03:15:44;1.87;;;1.60;;
6442;SDS011;3254;47.372;8.512;2024-02-26T03:18:10;1.67;;;1.43;;
6442;SDS011;3254;47.372;8.512;2024-02-26T03:20:35;1.23;;;1.10;;
6442;SDS011;3254;47.372;8.512;2024-02-26T03:23:02;1.40;;;1.30;;
6442;SDS011;3254;47.372;8.512;2024-02-26T03:25:27;1.47;;;1.10;;
6442;SDS011;3254;47.372;8.512;2024-02-26T03:27:52;3.07;;;1.50;;
6442;SDS011;3254;47.372;8.512;2024-02-26T03:30:18;1.97;;;1.40;;
6442;SDS011;3254;47.372;8.512;2024-02-26T03:32:43;4.47;;;1.60;;
6442;SDS011;3254;47.372;8.512;2024-02-26T03:35:09;1.60;;;1.50;;
6442;SDS011;3254;47.372;8.512;2024-02-26T03:37:34;4.50;;;3.53;;
6442;SDS011;3254;47.372;8.512;2024-02-26T03:39:59;2.30;;;2.10;;
6442;SDS011;3254;47.372;8.512;2024-02-26T03:42:26;3.20;;;3.00;;
6442;SDS011;3254;47.372;8.512;2024-02-26T03:44:51;1.80;;;1.70;;
6442;SDS011;3254;47.372;8.512;2024-02-26T03:47:17;2.30;;;2.10;;
6442;SDS011;3254;47.372;8.512;2024-02-26T03:49:42;5.17;;;1.70;;
6442;SDS011;3254;47.372;8.512;2024-02-26T03:52:07;1.80;;;1.63;;
6442;SDS011;3254;47.372;8.512;2024-02-26T03:54:33;1.60;;;1.50;;
6442;SDS011;3254;47.372;8.512;2024-02-26T03:56:58;1.60;;;1.50;;
6442;SDS011;3254;47.372;8.512;2024-02-26T03:59:24;1.67;;;1.40;;
6442;SDS011;3254;47.372;8.512;2024-02-26T04:01:50;1.90;;;1.67;;
6442;SDS011;3254;47.372;8.512;2024-02-26T04:04:16;2.85;;;1.52;;
6442;SDS011;3254;47.372;8.512;2024-02-26T04:06:45;1.23;;;1.13;;
6442;SDS011;3254;47.372;8.512;2024-02-26T04:09:11;1.20;;;1.10;;
6442;SDS011;3254;47.372;8.512;2024-02-26T04:11:37;1.27;;;1.17;;
6442;SDS011;3254;47.372;8.512;2024-02-26T04:14:02;1.37;;;1.20;;
6442;SDS011;3254;47.372;8.512;2024-02-26T04:16:28;1.03;;;1.03;;
6442;SDS011;3254;47.372;8.512;2024-02-26T04:18:54;1.43;;;1.33;;
6442;SDS011;3254;47.372;8.512;2024-02-26T04:21:19;1.30;;;1.20;;
6442;SDS011;3254;47.372;8.512;2024-02-26T04:23:45;1.50;;;1.40;;
6442;SDS011;3254;47.372;8.512;2024-02-26T04:26:10;2.50;;;1.37;;
6442;SDS011;3254;47.372;8.512;2024-02-26T04:28:35;1.13;;;1.13;;
6442;SDS011;3254;47.372;8.512;2024-02-26T04:31:01;1.27;;;1.23;;
6442;SDS011;3254;47.372;8.512;2024-02-26T04:33:26;1.70;;;1.60;;
6442;SDS011;3254;47.372;8.512;2024-02-26T04:35:52;1.73;;;1.63;;
6442;SDS011;3254;47.372;8.512;2024-02-26T04:38:17;1.30;;;1.20;;
6442;SDS011;3254;47.372;8.512;2024-02-26T04:40:43;1.30;;;1.20;;
6442;SDS011;3254;47.372;8.512;2024-02-26T04:43:08;1.63;;;1.53;;
6442;SDS011;3254;47.372;8.512;2024-02-26T04:45:33;1.23;;;1.23;;
6442;SDS011;3254;47.372;8.512;2024-02-26T04:47:59;1.43;;;1.33;;
6442;SDS011;3254;47.372;8.512;2024-02-26T04:50:24;2.00;;;1.73;;
6442;SDS011;3254;47.372;8.512;2024-02-26T04:52:50;1.17;;;1.10;;
6442;SDS011;3254;47.372;8.512;2024-02-26T04:55:15;1.70;;;1.60;;
6442;SDS011;3254;47.372;8.512;2024-02-26T04:57:40;5.30;;;1.37;;
6442;SDS011;3254;47.372;8.512;2024-02-26T05:00:06;2.90;;;1.50;;
6442;SDS011;3254;47.372;8.512;2024-02-26T05:02:32;1.50;;;1.40;;
6442;SDS011;3254;47.372;8.512;2024-02-26T05:04:58;2.20;;;2.00;;
6442;SDS011;3254;47.372;8.512;2024-02-26T05:07:24;2.20;;;1.17;;
6442;SDS011;3254;47.372;8.512;2024-02-26T05:09:49;1.47;;;1.40;;
6442;SDS011;3254;47.372;8.512;2024-02-26T05:12:14;1.70;;;1.60;;
6442;SDS011;3254;47.372;8.512;2024-02-26T05:14:40;1.80;;;1.70;;
6442;SDS011;3254;47.372;8.512;2024-02-26T05:17:06;1.60;;;1.50;;
6442;SDS011;3254;47.372;8.512;2024-02-26T05:19:31;1.93;;;1.13;;
6442;SDS011;3254;47.372;8.512;2024-02-26T05:21:57;1.23;;;1.20;;
6442;SDS011;3254;47.372;8.512;2024-02-26T05:24:22;2.43;;;1.47;;
6442;SDS011;3254;47.372;8.512;2024-02-26T05:26:48;1.63;;;1.53;;
6442;SDS011;3254;47.372;8.512;2024-02-26T05:29:13;1.77;;;1.67;;
6442;SDS011;3254;47.372;8.512;2024-02-26T05:31:38;1.40;;;1.30;;
6442;SDS011;3254;47.372;8.512;2024-02-26T05:34:04;1.10;;;1.07;;
6442;SDS011;3254;47.372;8.512;2024-02-26T05:36:30;2.60;;;1.20;;
6442;SDS011;3254;47.372;8.512;2024-02-26T05:38:58;1.50;;;1.40;;
6442;SDS011;3254;47.372;8.512;2024-02-26T05:41:26;1.50;;;1.40;;
6442;SDS011;3254;47.372;8.512;2024-02-26T05:43:52;1.40;;;1.30;;
6442;SDS011;3254;47.372;8.512;2024-02-26T05:46:18;2.23;;;1.63;;
6442;SDS011;3254;47.372;8.512;2024-02-26T05:48:44;1.67;;;1.50;;
6442;SDS011;3254;47.372;8.512;2024-02-26T05:51:11;2.03;;;1.93;;
6442;SDS011;3254;47.372;8.512;2024-02-26T05:53:36;1.90;;;1.80;;
6442;SDS011;3254;47.372;8.512;2024-02-26T05:56:01;1.43;;;1.33;;
6442;SDS011;3254;47.372;8.512;2024-02-26T05:58:27;1.37;;;1.27;;
6442;SDS011;3254;47.372;8.512;2024-02-26T06:00:52;1.20;;;1.10;;
6442;SDS011;3254;47.372;8.512;2024-02-26T06:03:17;1.50;;;1.40;;
6442;SDS011;3254;47.372;8.512;2024-02-26T06:05:43;1.63;;;1.17;;
6442;SDS011;3254;47.372;8.512;2024-02-26T06:08:08;1.40;;;1.30;;
6442;SDS011;3254;47.372;8.512;2024-02-26T06:10:34;1.30;;;1.20;;
6442;SDS011;3254;47.372;8.512;2024-02-26T06:12:59;1.60;;;1.50;;
6442;SDS011;3254;47.372;8.512;2024-02-26T06:15:24;2.27;;;1.40;;
6442;SDS011;3254;47.372;8.512;2024-02-26T06:17:50;1.30;;;1.30;;
6442;SDS011;3254;47.372;8.512;2024-02-26T06:20:15;2.90;;;1.57;;
6442;SDS011;3254;47.372;8.512;2024-02-26T06:22:40;1.90;;;1.50;;
6442;SDS011;3254;47.372;8.512;2024-02-26T06:25:06;1.50;;;1.27;;
6442;SDS011;3254;47.372;8.512;2024-02-26T06:27:32;3.27;;;1.60;;
6442;SDS011;3254;47.372;8.512;2024-02-26T06:29:58;3.57;;;1.80;;
6442;SDS011;3254;47.372;8.512;2024-02-26T06:32:23;2.40;;;2.07;;
6442;SDS011;3254;47.372;8.512;2024-02-26T06:34:48;1.87;;;1.77;;
6442;SDS011;3254;47.372;8.512;2024-02-26T06:37:14;1.60;;;1.50;;
6442;SDS011;3254;47.372;8.512;2024-02-26T06:39:39;1.33;;;1.23;;
6442;SDS011;3254;47.372;8.512;2024-02-26T06:42:06;1.60;;;1.50;;
6442;SDS011;3254;47.372;8.512;2024-02-26T06:44:31;2.13;;;1.63;;
6442;SDS011;3254;47.372;8.512;2024-02-26T06:47:00;1.20;;;1.20;;
6442;SDS011;3254;47.372;8.512;2024-02-26T06:49:26;1.60;;;1.50;;
6442;SDS011;3254;47.372;8.512;2024-02-26T06:51:52;2.03;;;1.37;;
6442;SDS011;3254;47.372;8.512;2024-02-26T06:54:17;1.70;;;1.60;;
6442;SDS011;3254;47.372;8.512;2024-02-26T06:56:43;1.37;;;1.20;;
6442;SDS011;3254;47.372;8.512;2024-02-26T06:59:08;1.40;;;1.30;;
6442;SDS011;3254;47.372;8.512;2024-02-26T07:01:34;3.17;;;1.57;;
6442;SDS011;3254;47.372;8.512;2024-02-26T07:03:59;1.40;;;1.30;;
6442;SDS011;3254;47.372;8.512;2024-02-26T07:06:25;1.60;;;1.50;;
6442;SDS011;3254;47.372;8.512;2024-02-26T07:08:52;1.67;;;1.57;;
6442;SDS011;3254;47.372;8.512;2024-02-26T07:11:17;1.20;;;1.20;;
6442;SDS011;3254;47.372;8.512;2024-02-26T07:13:44;1.63;;;1.53;;
6442;SDS011;3254;47.372;8.512;2024-02-26T07:16:09;2.20;;;1.50;;
6442;SDS011;3254;47.372;8.512;2024-02-26T07:18:35;3.17;;;2.03;;
6442;SDS011;3254;47.372;8.512;2024-02-26T07:21:03;2.27;;;1.40;;
6442;SDS011;3254;47.372;8.512;2024-02-26T07:23:29;12.83;;;1.60;;
6442;SDS011;3254;47.372;8.512;2024-02-26T07:25:54;1.90;;;1.80;;
6442;SDS011;3254;47.372;8.512;2024-02-26T07:28:19;1.53;;;1.37;;
6442;SDS011;3254;47.372;8.512;2024-02-26T07:30:45;1.73;;;1.63;;
6442;SDS011;3254;47.372;8.512;2024-02-26T07:33:10;1.50;;;1.40;;
6442;SDS011;3254;47.372;8.512;2024-02-26T07:35:36;2.80;;;1.60;;
6442;SDS011;3254;47.372;8.512;2024-02-26T07:38:03;2.13;;;2.03;;
6442;SDS011;3254;47.372;8.512;2024-02-26T07:40:29;2.00;;;1.90;;
6442;SDS011;3254;47.372;8.512;2024-02-26T07:42:54;5.13;;;2.37;;
6442;SDS011;3254;47.372;8.512;2024-02-26T07:45:20;1.90;;;1.80;;
6442;SDS011;3254;47.372;8.512;2024-02-26T07:47:46;2.17;;;1.97;;
6442;SDS011;3254;47.372;8.512;2024-02-26T07:50:12;1.80;;;1.70;;
6442;SDS011;3254;47.372;8.512;2024-02-26T07:52:37;1.60;;;1.50;;
6442;SDS011;3254;47.372;8.512;2024-02-26T07:55:03;1.83;;;1.73;;
6442;SDS011;3254;47.372;8.512;2024-02-26T07:57:28;1.80;;;1.70;;
6442;SDS011;3254;47.372;8.512;2024-02-26T07:59:54;2.13;;;1.60;;
6442;SDS011;3254;47.372;8.512;2024-02-26T08:02:20;1.97;;;1.80;;
6442;SDS011;3254;47.372;8.512;2024-02-26T08:04:46;2.00;;;1.90;;
6442;SDS011;3254;47.372;8.512;2024-02-26T08:07:11;6.20;;;2.50;;
6442;SDS011;3254;47.372;8.512;2024-02-26T08:09:37;1.40;;;1.30;;
6442;SDS011;3254;47.372;8.512;2024-02-26T08:12:02;9.80;;;1.40;;
6442;SDS011;3254;47.372;8.512;2024-02-26T08:14:28;2.00;;;1.70;;
6442;SDS011;3254;47.372;8.512;2024-02-26T08:16:53;1.67;;;1.40;;
6442;SDS011;3254;47.372;8.512;2024-02-26T08:19:18;1.80;;;1.70;;
6442;SDS011;3254;47.372;8.512;2024-02-26T08:21:44;1.57;;;1.47;;
6442;SDS011;3254;47.372;8.512;2024-02-26T08:24:09;2.13;;;2.00;;
6442;SDS011;3254;47.372;8.512;2024-02-26T08:26:34;2.70;;;2.50;;
6442;SDS011;3254;47.372;8.512;2024-02-26T08:29:00;1.70;;;1.60;;
6442;SDS011;3254;47.372;8.512;2024-02-26T08:31:25;1.70;;;1.60;;
6442;SDS011;3254;47.372;8.512;2024-02-26T08:33:52;1.77;;;1.67;;
6442;SDS011;3254;47.372;8.512;2024-02-26T08:36:17;4.80;;;1.73;;
6442;SDS011;3254;47.372;8.512;2024-02-26T08:38:42;2.33;;;1.67;;
6442;SDS011;3254;47.372;8.512;2024-02-26T08:41:08;1.87;;;1.77;;
6442;SDS011;3254;47.372;8.512;2024-02-26T08:43:33;4.90;;;1.90;;
6442;SDS011;3254;47.372;8.512;2024-02-26T08:45:58;1.70;;;1.60;;
6442;SDS011;3254;47.372;8.512;2024-02-26T08:48:24;1.90;;;1.80;;
6442;SDS011;3254;47.372;8.512;2024-02-26T08:50:49;3.47;;;2.40;;
6442;SDS011;3254;47.372;8.512;2024-02-26T08:53:15;2.00;;;1.90;;
6442;SDS011;3254;47.372;8.512;2024-02-26T08:55:40;2.90;;;1.80;;
6442;SDS011;3254;47.372;8.512;2024-02-26T08:58:05;2.20;;;2.00;;
6442;SDS011;3254;47.372;8.512;2024-02-26T09:00:31;1.80;;;1.70;;
6442;SDS011;3254;47.372;8.512;2024-02-26T09:02:56;1.87;;;1.77;;
6442;SDS011;3254;47.372;8.512;2024-02-26T09:05:21;5.13;;;1.80;;
6442;SDS011;3254;47.372;8.512;2024-02-26T09:07:47;2.30;;;2.20;;
6442;SDS011;3254;47.372;8.512;2024-02-26T09:10:12;2.37;;;2.17;;
6442;SDS011;3254;47.372;8.512;2024-02-26T09:12:38;2.90;;;2.00;;
6442;SDS011;3254;47.372;8.512;2024-02-26T09:15:05;2.77;;;1.90;;
6442;SDS011;3254;47.372;8.512;2024-02-26T09:17:31;1.90;;;1.80;;
6442;SDS011;3254;47.372;8.512;2024-02-26T09:19:56;2.10;;;2.00;;
6442;SDS011;3254;47.372;8.512;2024-02-26T09:22:22;2.27;;;2.07;;
6442;SDS011;3254;47.372;8.512;2024-02-26T09:24:47;2.40;;;2.30;;
6442;SDS011;3254;47.372;8.512;2024-02-26T09:27:14;2.17;;;1.97;;
6442;SDS011;3254;47.372;8.512;2024-02-26T09:29:40;5.17;;;2.27;;
6442;SDS011;3254;47.372;8.512;2024-02-26T09:32:05;4.10;;;2.10;;
6442;SDS011;3254;47.372;8.512;2024-02-26T09:34:31;2.60;;;2.40;;
6442;SDS011;3254;47.372;8.512;2024-02-26T09:36:56;2.00;;;1.90;;
6442;SDS011;3254;47.372;8.512;2024-02-26T09:39:22;3.97;;;2.70;;
6442;SDS011;3254;47.372;8.512;2024-02-26T09:41:47;2.50;;;2.30;;
6442;SDS011;3254;47.372;8.512;2024-02-26T09:44:15;8.43;;;2.30;;
6442;SDS011;3254;47.372;8.512;2024-02-26T09:46:44;3.37;;;1.93;;
6442;SDS011;3254;47.372;8.512;2024-02-26T09:49:10;4.77;;;2.17;;
6442;SDS011;3254;47.372;8.512;2024-02-26T09:51:37;8.20;;;2.03;;
6442;SDS011;3254;47.372;8.512;2024-02-26T09:54:03;2.00;;;1.87;;
6442;SDS011;3254;47.372;8.512;2024-02-26T09:56:29;6.70;;;2.00;;
6442;SDS011;3254;47.372;8.512;2024-02-26T09:58:55;2.20;;;2.07;;
6442;SDS011;3254;47.372;8.512;2024-02-26T10:01:21;3.03;;;2.50;;
6442;SDS011;3254;47.372;8.512;2024-02-26T10:03:52;2.23;;;2.13;;
6442;SDS011;3254;47.372;8.512;2024-02-26T10:06:20;2.17;;;2.07;;
6442;SDS011;3254;47.372;8.512;2024-02-26T10:08:45;3.87;;;1.83;;
6442;SDS011;3254;47.372;8.512;2024-02-26T10:11:12;3.10;;;2.37;;
6442;SDS011;3254;47.372;8.512;2024-02-26T10:13:38;3.40;;;2.60;;
6442;SDS011;3254;47.372;8.512;2024-02-26T10:16:03;2.23;;;2.03;;
6442;SDS011;3254;47.372;8.512;2024-02-26T10:19:02;2.33;;;2.23;;
6442;SDS011;3254;47.372;8.512;2024-02-26T10:21:20;2.43;;;2.20;;
6442;SDS011;3254;47.372;8.512;2024-02-26T10:23:46;2.17;;;2.07;;
6442;SDS011;3254;47.372;8.512;2024-02-26T10:26:12;2.10;;;2.00;;
6442;SDS011;3254;47.372;8.512;2024-02-26T10:28:39;6.63;;;2.10;;
6442;SDS011;3254;47.372;8.512;2024-02-26T10:31:05;2.80;;;2.50;;
6442;SDS011;3254;47.372;8.512;2024-02-26T10:33:33;2.33;;;2.23;;
6442;SDS011;3254;47.372;8.512;2024-02-26T10:36:01;3.30;;;3.10;;
6442;SDS011;3254;47.372;8.512;2024-02-26T10:38:26;4.43;;;2.80;;
6442;SDS011;3254;47.372;8.512;2024-02-26T10:40:51;2.30;;;1.97;;
6442;SDS011;3254;47.372;8.512;2024-02-26T10:43:17;3.20;;;2.57;;
6442;SDS011;3254;47.372;8.512;2024-02-26T10:45:43;4.23;;;3.00;;
6442;SDS011;3254;47.372;8.512;2024-02-26T10:48:09;2.60;;;2.50;;
6442;SDS011;3254;47.372;8.512;2024-02-26T10:50:36;2.73;;;2.53;;
6442;SDS011;3254;47.372;8.512;2024-02-26T10:53:01;2.70;;;2.60;;
6442;SDS011;3254;47.372;8.512;2024-02-26T10:55:27;7.80;;;2.40;;
6442;SDS011;3254;47.372;8.512;2024-02-26T10:57:53;2.57;;;2.37;;
6442;SDS011;3254;47.372;8.512;2024-02-26T11:00:19;2.20;;;2.10;;
6442;SDS011;3254;47.372;8.512;2024-02-26T11:02:45;2.30;;;2.20;;
6442;SDS011;3254;47.372;8.512;2024-02-26T11:05:11;2.50;;;2.40;;
6442;SDS011;3254;47.372;8.512;2024-02-26T11:07:37;2.20;;;2.10;;
6442;SDS011;3254;47.372;8.512;2024-02-26T11:10:03;9.07;;;2.53;;
6442;SDS011;3254;47.372;8.512;2024-02-26T11:12:31;2.70;;;2.00;;
6442;SDS011;3254;47.372;8.512;2024-02-26T11:14:57;2.10;;;2.00;;
6442;SDS011;3254;47.372;8.512;2024-02-26T11:17:26;2.63;;;2.43;;
6442;SDS011;3254;47.372;8.512;2024-02-26T11:19:53;6.50;;;3.60;;
6442;SDS011;3254;47.372;8.512;2024-02-26T11:22:20;2.00;;;1.90;;
6442;SDS011;3254;47.372;8.512;2024-02-26T11:24:47;2.90;;;2.53;;
6442;SDS011;3254;47.372;8.512;2024-02-26T11:27:13;4.47;;;2.20;;
6442;SDS011;3254;47.372;8.512;2024-02-26T11:29:49;2.47;;;2.27;;
6442;SDS011;3254;47.372;8.512;2024-02-26T11:32:16;3.20;;;2.60;;
6442;SDS011;3254;47.372;8.512;2024-02-26T11:34:42;5.07;;;3.00;;
6442;SDS011;3254;47.372;8.512;2024-02-26T11:37:15;2.00;;;1.90;;
6442;SDS011;3254;47.372;8.512;2024-02-26T11:39:42;2.10;;;2.00;;
6442;SDS011;3254;47.372;8.512;2024-02-26T11:42:08;5.20;;;1.57;;
6442;SDS011;3254;47.372;8.512;2024-02-26T11:44:34;4.03;;;1.97;;
6442;SDS011;3254;47.372;8.512;2024-02-26T11:47:10;2.20;;;2.00;;
6442;SDS011;3254;47.372;8.512;2024-02-26T11:49:37;4.73;;;2.60;;
6442;SDS011;3254;47.372;8.512;2024-02-26T11:52:04;2.17;;;1.80;;
6442;SDS011;3254;47.372;8.512;2024-02-26T11:57:03;2.90;;;2.30;;
6442;SDS011;3254;47.372;8.512;2024-02-26T11:59:38;2.47;;;2.00;;
6442;SDS011;3254;47.372;8.512;2024-02-26T12:02:03;2.40;;;2.30;;
6442;SDS011;3254;47.372;8.512;2024-02-26T12:04:30;2.33;;;1.83;;
6442;SDS011;3254;47.372;8.512;2024-02-26T12:06:56;1.83;;;1.73;;
6442;SDS011;3254;47.372;8.512;2024-02-26T12:09:31;9.07;;;1.60;;
6442;SDS011;3254;47.372;8.512;2024-02-26T12:11:56;2.33;;;2.13;;
6442;SDS011;3254;47.372;8.512;2024-02-26T12:14:25;2.37;;;1.90;;
6442;SDS011;3254;47.372;8.512;2024-02-26T12:16:50;2.70;;;2.50;;
6442;SDS011;3254;47.372;8.512;2024-02-26T12:19:17;2.13;;;2.03;;
6442;SDS011;3254;47.372;8.512;2024-02-26T12:21:42;4.23;;;2.20;;
6442;SDS011;3254;47.372;8.512;2024-02-26T12:24:09;2.47;;;2.27;;
6442;SDS011;3254;47.372;8.512;2024-02-26T12:26:36;3.87;;;2.20;;
6442;SDS011;3254;47.372;8.512;2024-02-26T12:29:01;2.30;;;2.10;;
6442;SDS011;3254;47.372;8.512;2024-02-26T12:31:27;2.40;;;2.23;;
6442;SDS011;3254;47.372;8.512;2024-02-26T12:33:54;2.70;;;2.50;;
6442;SDS011;3254;47.372;8.512;2024-02-26T12:36:20;2.80;;;1.73;;
6442;SDS011;3254;47.372;8.512;2024-02-26T12:38:45;2.23;;;2.10;;
6442;SDS011;3254;47.372;8.512;2024-02-26T12:41:11;3.30;;;2.50;;
6442;SDS011;3254;47.372;8.512;2024-02-26T12:43:36;2.20;;;2.00;;
6442;SDS011;3254;47.372;8.512;2024-02-26T12:46:03;3.13;;;2.93;;
6442;SDS011;3254;47.372;8.512;2024-02-26T12:48:29;13.50;;;5.67;;
6442;SDS011;3254;47.372;8.512;2024-02-26T12:50:54;4.03;;;2.10;;
6442;SDS011;3254;47.372;8.512;2024-02-26T12:53:21;3.60;;;2.53;;
6442;SDS011;3254;47.372;8.512;2024-02-26T12:55:47;7.60;;;2.40;;
6442;SDS011;3254;47.372;8.512;2024-02-26T12:58:12;5.07;;;2.40;;
6442;SDS011;3254;47.372;8.512;2024-02-26T13:00:38;2.70;;;2.53;;
6442;SDS011;3254;47.372;8.512;2024-02-26T13:03:04;2.83;;;2.10;;
6442;SDS011;3254;47.372;8.512;2024-02-26T13:05:29;2.77;;;1.93;;
6442;SDS011;3254;47.372;8.512;2024-02-26T13:07:55;8.63;;;2.30;;
6442;SDS011;3254;47.372;8.512;2024-02-26T13:10:21;1.90;;;1.80;;
6442;SDS011;3254;47.372;8.512;2024-02-26T13:12:47;2.10;;;1.90;;
6442;SDS011;3254;47.372;8.512;2024-02-26T13:15:15;4.00;;;2.60;;
6442;SDS011;3254;47.372;8.512;2024-02-26T13:17:42;3.20;;;2.10;;
6442;SDS011;3254;47.372;8.512;2024-02-26T13:20:08;2.47;;;2.27;;
6442;SDS011;3254;47.372;8.512;2024-02-26T13:22:34;2.80;;;2.10;;
6442;SDS011;3254;47.372;8.512;2024-02-26T13:25:00;8.90;;;2.60;;
6442;SDS011;3254;47.372;8.512;2024-02-26T13:27:28;4.60;;;1.80;;
6442;SDS011;3254;47.372;8.512;2024-02-26T13:30:08;2.70;;;2.40;;
6442;SDS011;3254;47.372;8.512;2024-02-26T13:32:36;4.53;;;2.30;;
6442;SDS011;3254;47.372;8.512;2024-02-26T13:35:11;2.50;;;2.40;;
6442;SDS011;3254;47.372;8.512;2024-02-26T13:37:38;3.23;;;3.00;;
6442;SDS011;3254;47.372;8.512;2024-02-26T13:40:04;3.63;;;3.13;;
6442;SDS011;3254;47.372;8.512;2024-02-26T13:42:30;3.10;;;2.90;;
6442;SDS011;3254;47.372;8.512;2024-02-26T13:44:56;2.40;;;2.30;;
6442;SDS011;3254;47.372;8.512;2024-02-26T13:47:22;2.10;;;2.00;;
6442;SDS011;3254;47.372;8.512;2024-02-26T13:49:48;4.30;;;2.17;;
6442;SDS011;3254;47.372;8.512;2024-02-26T13:52:13;3.80;;;2.07;;
6442;SDS011;3254;47.372;8.512;2024-02-26T13:54:39;2.30;;;2.10;;
6442;SDS011;3254;47.372;8.512;2024-02-26T13:57:05;4.23;;;2.57;;
6442;SDS011;3254;47.372;8.512;2024-02-26T13:59:31;2.30;;;2.20;;
6442;SDS011;3254;47.372;8.512;2024-02-26T14:01:56;1.90;;;1.80;;
6442;SDS011;3254;47.372;8.512;2024-02-26T14:04:21;5.90;;;2.70;;
6442;SDS011;3254;47.372;8.512;2024-02-26T14:06:47;8.10;;;2.63;;
6442;SDS011;3254;47.372;8.512;2024-02-26T14:09:12;2.50;;;2.30;;
6442;SDS011;3254;47.372;8.512;2024-02-26T14:11:43;3.57;;;2.40;;
6442;SDS011;3254;47.372;8.512;2024-02-26T14:14:10;3.87;;;2.40;;
6442;SDS011;3254;47.372;8.512;2024-02-26T14:16:35;2.43;;;2.00;;
6442;SDS011;3254;47.372;8.512;2024-02-26T14:19:01;2.70;;;2.50;;
6442;SDS011;3254;47.372;8.512;2024-02-26T14:21:28;3.80;;;2.10;;
6442;SDS011;3254;47.372;8.512;2024-02-26T14:23:57;3.57;;;1.87;;
6442;SDS011;3254;47.372;8.512;2024-02-26T14:26:22;2.43;;;2.10;;
6442;SDS011;3254;47.372;8.512;2024-02-26T14:28:48;2.40;;;2.13;;
6442;SDS011;3254;47.372;8.512;2024-02-26T14:31:16;2.30;;;2.20;;
6442;SDS011;3254;47.372;8.512;2024-02-26T14:33:42;2.80;;;2.40;;
6442;SDS011;3254;47.372;8.512;2024-02-26T14:36:07;2.00;;;1.90;;
6442;SDS011;3254;47.372;8.512;2024-02-26T14:38:33;2.50;;;2.30;;
6442;SDS011;3254;47.372;8.512;2024-02-26T14:40:58;2.03;;;1.93;;
6442;SDS011;3254;47.372;8.512;2024-02-26T14:43:24;4.30;;;2.03;;
6442;SDS011;3254;47.372;8.512;2024-02-26T14:45:49;5.60;;;2.10;;
6442;SDS011;3254;47.372;8.512;2024-02-26T14:48:15;4.20;;;2.50;;
6442;SDS011;3254;47.372;8.512;2024-02-26T14:50:40;2.33;;;2.23;;
6442;SDS011;3254;47.372;8.512;2024-02-26T14:53:05;2.00;;;1.90;;
6442;SDS011;3254;47.372;8.512;2024-02-26T14:55:31;2.73;;;1.87;;
6442;SDS011;3254;47.372;8.512;2024-02-26T14:57:57;4.23;;;2.00;;
6442;SDS011;3254;47.372;8.512;2024-02-26T15:00:22;3.10;;;2.30;;
6442;SDS011;3254;47.372;8.512;2024-02-26T15:02:48;2.80;;;2.43;;
6442;SDS011;3254;47.372;8.512;2024-02-26T15:05:13;5.93;;;2.17;;
6442;SDS011;3254;47.372;8.512;2024-02-26T15:07:38;2.13;;;2.03;;
6442;SDS011;3254;47.372;8.512;2024-02-26T15:10:05;5.00;;;2.50;;